sensor_id;sensor_type;location;lat;lon;timestamp;noise_LAeq;noise_LA_min;noise_LA_max;noise_LA01;noise_LA95
41704;Laerm;861;48.808;9.006;2022-10-20T00:01:27;32.91;31.37;34.44;;
41704;Laerm;861;48.808;9.006;2022-10-20T00:03:55;32.92;31.51;34.22;;
41704;Laerm;861;48.808;9.006;2022-10-20T00:06:31;32.90;31.65;34.62;;
41704;Laerm;861;48.808;9.006;2022-10-20T00:09:03;32.89;31.56;34.36;;
41704;Laerm;861;48.808;9.006;2022-10-20T00:11:31;32.89;31.64;34.21;;
41704;Laerm;861;48.808;9.006;2022-10-20T00:14:00;32.89;31.28;34.11;;
41704;Laerm;861;48.808;9.006;2022-10-20T00:16:31;32.87;31.68;34.12;;
41704;Laerm;861;48.808;9.006;2022-10-20T00:19:00;32.84;31.44;34.51;;
41704;Laerm;861;48.808;9.006;2022-10-20T00:21:28;32.82;31.53;34.19;;
41704;Laerm;861;48.808;9.006;2022-10-20T00:23:58;32.82;31.48;34.47;;
41704;Laerm;861;48.808;9.006;2022-10-20T00:26:29;32.81;31.33;34.33;;
41704;Laerm;861;48.808;9.006;2022-10-20T00:28:57;32.84;31.51;34.37;;
41704;Laerm;861;48.808;9.006;2022-10-20T00:31:25;32.75;31.60;34.10;;
41704;Laerm;861;48.808;9.006;2022-10-20T00:33:52;32.75;31.52;34.12;;
41704;Laerm;861;48.808;9.006;2022-10-20T00:36:22;32.78;31.30;34.55;;
41704;Laerm;861;48.808;9.006;2022-10-20T00:38:50;33.12;31.44;41.96;;
41704;Laerm;861;48.808;9.006;2022-10-20T00:41:20;32.66;31.30;38.61;;
41704;Laerm;861;48.808;9.006;2022-10-20T00:44:43;32.64;31.24;34.49;;
41704;Laerm;861;48.808;9.006;2022-10-20T00:46:47;32.78;31.13;37.28;;
41704;Laerm;861;48.808;9.006;2022-10-20T00:49:21;32.54;30.83;34.23;;
41704;Laerm;861;48.808;9.006;2022-10-20T00:51:51;32.55;31.29;34.53;;
41704;Laerm;861;48.808;9.006;2022-10-20T00:54:26;32.57;31.25;41.85;;
41704;Laerm;861;48.808;9.006;2022-10-20T00:56:56;32.56;31.21;34.45;;
41704;Laerm;861;48.808;9.006;2022-10-20T00:59:32;32.56;31.20;35.21;;
41704;Laerm;861;48.808;9.006;2022-10-20T01:02:05;32.56;31.02;34.15;;
41704;Laerm;861;48.808;9.006;2022-10-20T01:04:36;32.58;31.26;34.25;;
41704;Laerm;861;48.808;9.006;2022-10-20T01:07:03;32.55;30.93;34.59;;
41704;Laerm;861;48.808;9.006;2022-10-20T01:09:32;32.52;31.15;34.16;;
41704;Laerm;861;48.808;9.006;2022-10-20T01:12:27;32.53;31.32;34.86;;
41704;Laerm;861;48.808;9.006;2022-10-20T01:15:30;32.55;30.96;34.21;;
41704;Laerm;861;48.808;9.006;2022-10-20T01:24:39;32.57;31.29;36.32;;
41704;Laerm;861;48.808;9.006;2022-10-20T01:27:37;32.57;31.25;34.12;;
41704;Laerm;861;48.808;9.006;2022-10-20T01:30:22;32.58;31.19;34.16;;
41704;Laerm;861;48.808;9.006;2022-10-20T01:33:12;32.63;31.26;34.28;;
41704;Laerm;861;48.808;9.006;2022-10-20T01:36:22;32.67;31.23;34.57;;
41704;Laerm;861;48.808;9.006;2022-10-20T01:39:16;32.69;31.45;34.79;;
41704;Laerm;861;48.808;9.006;2022-10-20T01:42:03;32.66;31.39;34.50;;
41704;Laerm;861;48.808;9.006;2022-10-20T01:44:37;32.66;31.34;35.13;;
41704;Laerm;861;48.808;9.006;2022-10-20T01:47:09;32.66;31.40;35.01;;
41704;Laerm;861;48.808;9.006;2022-10-20T01:49:41;32.65;31.21;34.47;;
41704;Laerm;861;48.808;9.006;2022-10-20T01:52:12;32.63;31.21;34.69;;
41704;Laerm;861;48.808;9.006;2022-10-20T01:54:39;32.65;31.40;34.29;;
41704;Laerm;861;48.808;9.006;2022-10-20T01:57:57;32.67;31.34;34.18;;
41704;Laerm;861;48.808;9.006;2022-10-20T02:00:28;32.68;31.39;35.08;;
41704;Laerm;861;48.808;9.006;2022-10-20T02:09:08;32.64;31.17;34.77;;
41704;Laerm;861;48.808;9.006;2022-10-20T02:14:16;32.62;31.24;34.18;;
41704;Laerm;861;48.808;9.006;2022-10-20T02:17:01;32.62;31.12;34.23;;
41704;Laerm;861;48.808;9.006;2022-10-20T02:19:39;32.60;31.15;34.00;;
41704;Laerm;861;48.808;9.006;2022-10-20T02:22:11;32.60;31.26;34.07;;
41704;Laerm;861;48.808;9.006;2022-10-20T02:24:42;32.60;31.27;33.95;;
41704;Laerm;861;48.808;9.006;2022-10-20T02:27:35;32.59;31.21;33.86;;
41704;Laerm;861;48.808;9.006;2022-10-20T02:30:09;32.60;31.04;34.74;;
41704;Laerm;861;48.808;9.006;2022-10-20T02:32:43;32.63;31.06;35.05;;
41704;Laerm;861;48.808;9.006;2022-10-20T02:35:29;32.64;31.28;34.11;;
41704;Laerm;861;48.808;9.006;2022-10-20T02:37:58;32.66;31.25;34.38;;
41704;Laerm;861;48.808;9.006;2022-10-20T02:40:26;32.70;31.38;34.47;;
41704;Laerm;861;48.808;9.006;2022-10-20T02:42:53;32.71;31.26;34.24;;
41704;Laerm;861;48.808;9.006;2022-10-20T02:45:19;32.71;31.35;33.96;;
41704;Laerm;861;48.808;9.006;2022-10-20T02:47:46;32.72;31.50;34.37;;
41704;Laerm;861;48.808;9.006;2022-10-20T02:50:13;32.72;31.25;34.36;;
41704;Laerm;861;48.808;9.006;2022-10-20T02:54:58;32.73;31.38;34.31;;
41704;Laerm;861;48.808;9.006;2022-10-20T02:57:24;32.71;31.40;34.50;;
41704;Laerm;861;48.808;9.006;2022-10-20T02:59:52;32.73;31.43;34.32;;
41704;Laerm;861;48.808;9.006;2022-10-20T03:02:18;32.76;31.26;34.63;;
41704;Laerm;861;48.808;9.006;2022-10-20T03:04:45;32.78;31.27;34.54;;
41704;Laerm;861;48.808;9.006;2022-10-20T03:07:12;32.79;31.30;34.27;;
41704;Laerm;861;48.808;9.006;2022-10-20T03:09:39;32.84;31.51;34.49;;
41704;Laerm;861;48.808;9.006;2022-10-20T03:12:06;32.83;31.65;34.40;;
41704;Laerm;861;48.808;9.006;2022-10-20T03:14:32;32.87;31.52;34.23;;
41704;Laerm;861;48.808;9.006;2022-10-20T03:16:59;32.90;31.59;34.88;;
41704;Laerm;861;48.808;9.006;2022-10-20T03:19:25;32.92;31.60;34.61;;
41704;Laerm;861;48.808;9.006;2022-10-20T03:21:52;32.94;31.55;34.50;;
41704;Laerm;861;48.808;9.006;2022-10-20T03:24:18;32.94;31.56;34.76;;
41704;Laerm;861;48.808;9.006;2022-10-20T03:26:45;32.96;31.80;34.46;;
41704;Laerm;861;48.808;9.006;2022-10-20T03:29:11;32.98;31.48;34.43;;
41704;Laerm;861;48.808;9.006;2022-10-20T03:31:38;32.98;31.83;34.26;;
41704;Laerm;861;48.808;9.006;2022-10-20T03:34:04;32.98;31.67;35.57;;
41704;Laerm;861;48.808;9.006;2022-10-20T03:36:31;32.97;31.52;35.00;;
41704;Laerm;861;48.808;9.006;2022-10-20T03:38:57;32.98;31.75;34.81;;
41704;Laerm;861;48.808;9.006;2022-10-20T03:41:24;32.97;31.43;35.06;;
41704;Laerm;861;48.808;9.006;2022-10-20T03:43:50;32.97;31.58;34.98;;
41704;Laerm;861;48.808;9.006;2022-10-20T03:46:17;32.99;31.74;34.87;;
41704;Laerm;861;48.808;9.006;2022-10-20T03:48:43;33.03;31.76;34.70;;
41704;Laerm;861;48.808;9.006;2022-10-20T03:51:13;33.07;31.76;35.03;;
41704;Laerm;861;48.808;9.006;2022-10-20T03:53:40;33.12;31.72;34.52;;
41704;Laerm;861;48.808;9.006;2022-10-20T03:56:09;33.14;31.76;34.41;;
41704;Laerm;861;48.808;9.006;2022-10-20T03:58:36;33.17;31.90;34.86;;
41704;Laerm;861;48.808;9.006;2022-10-20T04:01:04;33.19;31.78;34.35;;
41704;Laerm;861;48.808;9.006;2022-10-20T04:03:32;33.19;31.94;34.85;;
41704;Laerm;861;48.808;9.006;2022-10-20T04:05:58;33.19;31.90;36.04;;
41704;Laerm;861;48.808;9.006;2022-10-20T04:08:25;33.22;31.71;34.81;;
41704;Laerm;861;48.808;9.006;2022-10-20T04:10:52;33.21;32.03;34.68;;
41704;Laerm;861;48.808;9.006;2022-10-20T04:13:18;33.21;32.02;34.39;;
41704;Laerm;861;48.808;9.006;2022-10-20T04:15:45;33.21;31.90;34.68;;
41704;Laerm;861;48.808;9.006;2022-10-20T04:18:11;33.22;31.82;34.83;;
41704;Laerm;861;48.808;9.006;2022-10-20T04:20:38;33.22;31.80;34.93;;
41704;Laerm;861;48.808;9.006;2022-10-20T04:23:04;33.23;32.00;34.88;;
41704;Laerm;861;48.808;9.006;2022-10-20T04:25:31;33.25;32.08;34.92;;
41704;Laerm;861;48.808;9.006;2022-10-20T04:27:59;33.27;31.83;34.79;;
41704;Laerm;861;48.808;9.006;2022-10-20T04:31:00;33.26;31.87;34.62;;
41704;Laerm;861;48.808;9.006;2022-10-20T04:33:27;33.23;31.84;34.93;;
41704;Laerm;861;48.808;9.006;2022-10-20T04:36:07;33.16;31.76;34.86;;
41704;Laerm;861;48.808;9.006;2022-10-20T04:38:35;33.44;31.72;35.21;;
41704;Laerm;861;48.808;9.006;2022-10-20T04:41:04;33.76;32.44;35.67;;
41704;Laerm;861;48.808;9.006;2022-10-20T04:43:33;34.00;32.65;35.33;;
41704;Laerm;861;48.808;9.006;2022-10-20T04:46:09;34.09;32.90;35.75;;
41704;Laerm;861;48.808;9.006;2022-10-20T04:48:41;34.12;32.84;35.46;;
41704;Laerm;861;48.808;9.006;2022-10-20T04:51:13;34.14;32.93;35.55;;
41704;Laerm;861;48.808;9.006;2022-10-20T04:53:40;34.16;32.83;35.42;;
41704;Laerm;861;48.808;9.006;2022-10-20T04:56:12;34.15;32.74;35.67;;
41704;Laerm;861;48.808;9.006;2022-10-20T04:58:40;34.07;32.59;38.06;;
41704;Laerm;861;48.808;9.006;2022-10-20T05:01:09;33.99;32.51;35.23;;
41704;Laerm;861;48.808;9.006;2022-10-20T05:03:36;33.93;32.67;35.38;;
41704;Laerm;861;48.808;9.006;2022-10-20T05:06:27;33.91;32.65;35.83;;
41704;Laerm;861;48.808;9.006;2022-10-20T05:09:03;33.88;32.33;35.22;;
41704;Laerm;861;48.808;9.006;2022-10-20T05:11:35;33.83;32.46;35.19;;
41704;Laerm;861;48.808;9.006;2022-10-20T05:14:02;33.76;32.46;35.15;;
41704;Laerm;861;48.808;9.006;2022-10-20T05:17:44;33.73;32.43;34.97;;
41704;Laerm;861;48.808;9.006;2022-10-20T05:22:24;33.65;32.26;35.12;;
41704;Laerm;861;48.808;9.006;2022-10-20T05:24:50;33.60;32.26;35.14;;
41704;Laerm;861;48.808;9.006;2022-10-20T05:27:17;33.55;32.24;35.12;;
41704;Laerm;861;48.808;9.006;2022-10-20T05:31:44;33.55;32.38;34.90;;
41704;Laerm;861;48.808;9.006;2022-10-20T05:36:51;33.55;32.30;34.91;;
41704;Laerm;861;48.808;9.006;2022-10-20T05:39:18;33.55;32.23;35.18;;
41704;Laerm;861;48.808;9.006;2022-10-20T05:41:45;33.53;32.01;35.29;;
41704;Laerm;861;48.808;9.006;2022-10-20T05:44:12;33.53;32.15;35.95;;
41704;Laerm;861;48.808;9.006;2022-10-20T05:46:40;33.53;32.08;34.92;;
41704;Laerm;861;48.808;9.006;2022-10-20T05:49:14;33.57;31.95;35.15;;
41704;Laerm;861;48.808;9.006;2022-10-20T05:51:44;33.60;32.18;35.44;;
41704;Laerm;861;48.808;9.006;2022-10-20T05:54:15;33.54;32.34;35.19;;
41704;Laerm;861;48.808;9.006;2022-10-20T05:56:41;33.55;31.83;35.10;;
41704;Laerm;861;48.808;9.006;2022-10-20T05:59:10;33.60;32.17;35.01;;
41704;Laerm;861;48.808;9.006;2022-10-20T06:01:38;33.57;32.28;35.03;;
41704;Laerm;861;48.808;9.006;2022-10-20T06:04:20;33.59;32.04;34.95;;
41704;Laerm;861;48.808;9.006;2022-10-20T06:06:51;33.62;32.38;35.31;;
41704;Laerm;861;48.808;9.006;2022-10-20T06:09:20;33.58;32.31;35.17;;
41704;Laerm;861;48.808;9.006;2022-10-20T06:11:49;33.57;32.05;35.10;;
41704;Laerm;861;48.808;9.006;2022-10-20T06:14:17;33.57;32.23;35.28;;
41704;Laerm;861;48.808;9.006;2022-10-20T06:16:44;33.56;32.32;34.95;;
41704;Laerm;861;48.808;9.006;2022-10-20T06:19:11;33.58;32.23;34.95;;
41704;Laerm;861;48.808;9.006;2022-10-20T06:21:40;33.60;32.34;35.90;;
41704;Laerm;861;48.808;9.006;2022-10-20T06:24:52;33.58;32.19;35.01;;
41704;Laerm;861;48.808;9.006;2022-10-20T06:27:18;33.60;32.10;35.34;;
41704;Laerm;861;48.808;9.006;2022-10-20T06:29:44;33.68;32.18;34.94;;
41704;Laerm;861;48.808;9.006;2022-10-20T06:32:11;33.68;32.19;35.04;;
41704;Laerm;861;48.808;9.006;2022-10-20T06:34:38;33.70;32.22;35.27;;
41704;Laerm;861;48.808;9.006;2022-10-20T06:37:04;33.69;32.33;34.98;;
41704;Laerm;861;48.808;9.006;2022-10-20T06:39:30;33.68;32.13;35.77;;
41704;Laerm;861;48.808;9.006;2022-10-20T06:41:57;33.69;32.39;35.34;;
41704;Laerm;861;48.808;9.006;2022-10-20T06:44:24;33.71;32.32;35.27;;
41704;Laerm;861;48.808;9.006;2022-10-20T06:46:51;33.73;32.26;34.95;;
41704;Laerm;861;48.808;9.006;2022-10-20T06:49:18;33.72;32.46;35.40;;
41704;Laerm;861;48.808;9.006;2022-10-20T06:51:45;33.73;32.43;35.28;;
41704;Laerm;861;48.808;9.006;2022-10-20T06:54:12;33.73;32.51;35.85;;
41704;Laerm;861;48.808;9.006;2022-10-20T06:56:39;33.74;32.40;35.81;;
41704;Laerm;861;48.808;9.006;2022-10-20T06:59:06;33.77;32.41;35.88;;
41704;Laerm;861;48.808;9.006;2022-10-20T07:01:38;33.79;32.40;36.60;;
41704;Laerm;861;48.808;9.006;2022-10-20T07:04:14;33.81;32.55;38.65;;
41704;Laerm;861;48.808;9.006;2022-10-20T07:06:44;33.86;32.50;35.52;;
41704;Laerm;861;48.808;9.006;2022-10-20T07:09:18;33.93;32.68;35.71;;
41704;Laerm;861;48.808;9.006;2022-10-20T07:11:51;33.98;32.51;36.05;;
41704;Laerm;861;48.808;9.006;2022-10-20T07:14:18;34.05;32.65;42.48;;
41704;Laerm;861;48.808;9.006;2022-10-20T07:16:45;34.08;32.61;35.44;;
41704;Laerm;861;48.808;9.006;2022-10-20T07:19:12;34.13;32.88;35.95;;
41704;Laerm;861;48.808;9.006;2022-10-20T07:21:38;34.18;32.98;36.89;;
41704;Laerm;861;48.808;9.006;2022-10-20T07:24:07;34.20;32.76;35.46;;
41704;Laerm;861;48.808;9.006;2022-10-20T07:26:39;34.24;32.69;35.74;;
41704;Laerm;861;48.808;9.006;2022-10-20T07:30:46;34.24;32.85;35.74;;
41704;Laerm;861;48.808;9.006;2022-10-20T07:33:12;34.24;32.50;35.66;;
41704;Laerm;861;48.808;9.006;2022-10-20T07:35:39;34.25;32.93;35.62;;
41704;Laerm;861;48.808;9.006;2022-10-20T07:38:05;34.27;32.90;35.58;;
41704;Laerm;861;48.808;9.006;2022-10-20T07:40:32;34.27;32.83;35.40;;
41704;Laerm;861;48.808;9.006;2022-10-20T07:42:58;34.33;32.99;47.56;;
41704;Laerm;861;48.808;9.006;2022-10-20T07:45:25;34.34;33.03;37.61;;
41704;Laerm;861;48.808;9.006;2022-10-20T07:47:52;34.35;32.95;44.43;;
41704;Laerm;861;48.808;9.006;2022-10-20T07:50:18;34.35;32.90;35.69;;
41704;Laerm;861;48.808;9.006;2022-10-20T07:52:49;34.35;33.16;35.51;;
41704;Laerm;861;48.808;9.006;2022-10-20T07:55:15;34.35;33.08;35.49;;
41704;Laerm;861;48.808;9.006;2022-10-20T07:57:42;34.37;33.02;35.65;;
41704;Laerm;861;48.808;9.006;2022-10-20T08:00:10;34.38;33.15;35.61;;
41704;Laerm;861;48.808;9.006;2022-10-20T08:02:36;34.38;33.00;35.67;;
41704;Laerm;861;48.808;9.006;2022-10-20T08:05:07;34.40;33.04;35.71;;
41704;Laerm;861;48.808;9.006;2022-10-20T08:07:34;34.40;33.07;36.30;;
41704;Laerm;861;48.808;9.006;2022-10-20T08:10:01;34.41;33.09;35.62;;
41704;Laerm;861;48.808;9.006;2022-10-20T08:12:28;34.43;33.11;38.38;;
41704;Laerm;861;48.808;9.006;2022-10-20T08:14:54;34.47;33.20;35.74;;
41704;Laerm;861;48.808;9.006;2022-10-20T08:17:21;34.52;33.14;35.89;;
41704;Laerm;861;48.808;9.006;2022-10-20T08:19:47;34.53;32.64;36.04;;
41704;Laerm;861;48.808;9.006;2022-10-20T08:22:14;34.62;33.18;35.85;;
41704;Laerm;861;48.808;9.006;2022-10-20T08:24:41;34.67;33.36;35.93;;
41704;Laerm;861;48.808;9.006;2022-10-20T08:27:08;34.75;33.34;36.90;;
41704;Laerm;861;48.808;9.006;2022-10-20T08:29:36;34.81;33.42;36.49;;
41704;Laerm;861;48.808;9.006;2022-10-20T08:32:04;34.81;33.42;36.13;;
41704;Laerm;861;48.808;9.006;2022-10-20T08:34:31;34.86;33.57;36.20;;
41704;Laerm;861;48.808;9.006;2022-10-20T08:36:58;34.86;33.48;36.15;;
41704;Laerm;861;48.808;9.006;2022-10-20T08:39:25;34.81;33.32;36.03;;
41704;Laerm;861;48.808;9.006;2022-10-20T08:41:55;34.88;33.65;36.29;;
41704;Laerm;861;48.808;9.006;2022-10-20T08:44:33;34.90;33.56;36.70;;
41704;Laerm;861;48.808;9.006;2022-10-20T08:47:10;34.91;33.72;36.08;;
41704;Laerm;861;48.808;9.006;2022-10-20T08:49:39;34.95;33.65;36.23;;
41704;Laerm;861;48.808;9.006;2022-10-20T08:52:14;35.03;33.62;36.35;;
41704;Laerm;861;48.808;9.006;2022-10-20T08:54:42;35.10;33.88;36.17;;
41704;Laerm;861;48.808;9.006;2022-10-20T08:57:35;35.06;33.87;36.45;;
41704;Laerm;861;48.808;9.006;2022-10-20T09:01:35;34.99;33.61;36.36;;
41704;Laerm;861;48.808;9.006;2022-10-20T09:04:19;35.01;33.67;36.23;;
41704;Laerm;861;48.808;9.006;2022-10-20T09:07:09;35.14;33.82;36.64;;
41704;Laerm;861;48.808;9.006;2022-10-20T09:09:41;35.17;33.83;36.67;;
41704;Laerm;861;48.808;9.006;2022-10-20T09:12:11;35.33;34.20;36.84;;
41704;Laerm;861;48.808;9.006;2022-10-20T09:14:40;35.42;34.26;36.60;;
41704;Laerm;861;48.808;9.006;2022-10-20T09:17:17;35.39;34.16;36.63;;
41704;Laerm;861;48.808;9.006;2022-10-20T09:19:54;35.43;34.13;36.61;;
41704;Laerm;861;48.808;9.006;2022-10-20T09:22:27;35.59;34.25;36.89;;
41704;Laerm;861;48.808;9.006;2022-10-20T09:24:57;35.62;34.19;36.95;;
41704;Laerm;861;48.808;9.006;2022-10-20T09:27:35;35.59;34.13;36.85;;
41704;Laerm;861;48.808;9.006;2022-10-20T09:30:33;35.52;34.09;36.74;;
41704;Laerm;861;48.808;9.006;2022-10-20T09:35:49;35.35;34.08;36.54;;
41704;Laerm;861;48.808;9.006;2022-10-20T09:38:25;35.20;33.79;36.50;;
41704;Laerm;861;48.808;9.006;2022-10-20T09:41:21;34.85;33.34;36.31;;
41704;Laerm;861;48.808;9.006;2022-10-20T09:44:08;34.66;33.32;35.86;;
41704;Laerm;861;48.808;9.006;2022-10-20T09:46:51;34.62;33.37;37.37;;
41704;Laerm;861;48.808;9.006;2022-10-20T09:49:35;34.61;32.88;35.81;;
41704;Laerm;861;48.808;9.006;2022-10-20T09:52:20;34.57;33.36;37.22;;
41704;Laerm;861;48.808;9.006;2022-10-20T09:54:59;34.56;33.29;36.38;;
41704;Laerm;861;48.808;9.006;2022-10-20T09:57:29;34.51;33.08;35.74;;
41704;Laerm;861;48.808;9.006;2022-10-20T09:59:58;34.56;33.25;35.90;;
41704;Laerm;861;48.808;9.006;2022-10-20T10:02:31;34.53;33.17;35.65;;
41704;Laerm;861;48.808;9.006;2022-10-20T10:05:19;34.60;33.30;35.79;;
41704;Laerm;861;48.808;9.006;2022-10-20T10:07:58;34.68;33.45;35.84;;
41704;Laerm;861;48.808;9.006;2022-10-20T10:10:30;34.74;33.29;36.24;;
41704;Laerm;861;48.808;9.006;2022-10-20T10:13:00;34.75;33.51;36.13;;
41704;Laerm;861;48.808;9.006;2022-10-20T10:15:35;34.71;33.10;35.97;;
41704;Laerm;861;48.808;9.006;2022-10-20T10:18:20;34.68;33.45;36.02;;
41704;Laerm;861;48.808;9.006;2022-10-20T10:21:17;34.64;33.29;35.90;;
41704;Laerm;861;48.808;9.006;2022-10-20T10:24:00;34.67;33.44;35.98;;
41704;Laerm;861;48.808;9.006;2022-10-20T10:26:55;34.70;33.31;36.03;;
41704;Laerm;861;48.808;9.006;2022-10-20T10:29:34;34.78;33.35;36.21;;
41704;Laerm;861;48.808;9.006;2022-10-20T10:32:28;34.78;33.48;36.39;;
41704;Laerm;861;48.808;9.006;2022-10-20T10:35:24;34.79;33.43;36.27;;
41704;Laerm;861;48.808;9.006;2022-10-20T10:37:57;34.77;33.47;36.01;;
41704;Laerm;861;48.808;9.006;2022-10-20T10:44:13;34.75;33.48;36.18;;
41704;Laerm;861;48.808;9.006;2022-10-20T10:47:33;34.68;32.96;35.88;;
41704;Laerm;861;48.808;9.006;2022-10-20T10:50:41;34.65;33.44;36.03;;
41704;Laerm;861;48.808;9.006;2022-10-20T10:56:34;34.67;33.43;35.90;;
41704;Laerm;861;48.808;9.006;2022-10-20T10:59:47;34.70;33.41;36.19;;
41704;Laerm;861;48.808;9.006;2022-10-20T11:06:05;34.78;33.47;36.04;;
41704;Laerm;861;48.808;9.006;2022-10-20T11:09:23;34.72;33.40;36.16;;
41704;Laerm;861;48.808;9.006;2022-10-20T11:25:13;34.82;33.24;36.20;;
41704;Laerm;861;48.808;9.006;2022-10-20T11:27:44;34.84;33.44;36.39;;
41704;Laerm;861;48.808;9.006;2022-10-20T11:30:20;34.83;33.52;36.01;;
41704;Laerm;861;48.808;9.006;2022-10-20T11:33:20;34.81;33.39;35.98;;
41704;Laerm;861;48.808;9.006;2022-10-20T11:36:03;34.75;33.20;36.04;;
41704;Laerm;861;48.808;9.006;2022-10-20T11:38:53;34.69;33.30;36.41;;
41704;Laerm;861;48.808;9.006;2022-10-20T11:42:04;34.68;33.35;36.22;;
41704;Laerm;861;48.808;9.006;2022-10-20T11:44:46;34.71;33.38;35.97;;
41704;Laerm;861;48.808;9.006;2022-10-20T11:47:29;34.68;33.05;36.08;;
41704;Laerm;861;48.808;9.006;2022-10-20T11:49:59;34.68;33.32;35.85;;
41704;Laerm;861;48.808;9.006;2022-10-20T11:53:06;34.72;33.23;35.98;;
41704;Laerm;861;48.808;9.006;2022-10-20T11:56:10;34.76;33.29;36.16;;
41704;Laerm;861;48.808;9.006;2022-10-20T11:59:33;34.73;33.41;36.11;;
41704;Laerm;861;48.808;9.006;2022-10-20T12:03:06;34.71;33.29;36.82;;
41704;Laerm;861;48.808;9.006;2022-10-20T12:05:44;34.68;33.24;36.02;;
41704;Laerm;861;48.808;9.006;2022-10-20T12:12:09;34.66;33.37;35.96;;
41704;Laerm;861;48.808;9.006;2022-10-20T12:14:54;34.63;33.23;35.95;;
41704;Laerm;861;48.808;9.006;2022-10-20T12:17:41;34.63;33.23;35.93;;
41704;Laerm;861;48.808;9.006;2022-10-20T12:22:51;34.67;33.23;35.75;;
41704;Laerm;861;48.808;9.006;2022-10-20T12:31:02;34.63;33.36;35.73;;
41704;Laerm;861;48.808;9.006;2022-10-20T12:34:03;34.56;33.18;35.98;;
41704;Laerm;861;48.808;9.006;2022-10-20T12:36:38;34.58;33.20;35.72;;
41704;Laerm;861;48.808;9.006;2022-10-20T12:39:21;34.54;33.19;36.09;;
41704;Laerm;861;48.808;9.006;2022-10-20T12:42:03;34.50;33.24;36.24;;
41704;Laerm;861;48.808;9.006;2022-10-20T12:44:44;34.24;32.90;36.17;;
41704;Laerm;861;48.808;9.006;2022-10-20T12:47:28;34.13;32.85;42.26;;
41704;Laerm;861;48.808;9.006;2022-10-20T12:50:34;34.23;32.93;36.20;;
41704;Laerm;861;48.808;9.006;2022-10-20T12:53:27;34.15;32.79;36.70;;
41704;Laerm;861;48.808;9.006;2022-10-20T12:56:18;34.11;32.79;36.82;;
41704;Laerm;861;48.808;9.006;2022-10-20T13:08:18;34.14;32.73;35.34;;
41704;Laerm;861;48.808;9.006;2022-10-20T13:10:48;34.14;32.66;35.95;;
41704;Laerm;861;48.808;9.006;2022-10-20T13:15:52;34.19;32.80;35.63;;
41704;Laerm;861;48.808;9.006;2022-10-20T13:18:36;34.22;32.95;35.49;;
41704;Laerm;861;48.808;9.006;2022-10-20T13:21:29;34.24;32.81;35.65;;
41704;Laerm;861;48.808;9.006;2022-10-20T13:24:28;34.26;33.06;35.67;;
41704;Laerm;861;48.808;9.006;2022-10-20T13:27:07;34.30;32.91;35.58;;
41704;Laerm;861;48.808;9.006;2022-10-20T13:29:40;34.37;33.07;35.81;;
41704;Laerm;861;48.808;9.006;2022-10-20T13:32:27;34.38;32.86;35.74;;
41704;Laerm;861;48.808;9.006;2022-10-20T13:35:42;34.41;32.92;35.54;;
41704;Laerm;861;48.808;9.006;2022-10-20T13:38:45;34.46;33.14;35.61;;
41704;Laerm;861;48.808;9.006;2022-10-20T13:45:41;34.44;33.26;35.84;;
41704;Laerm;861;48.808;9.006;2022-10-20T13:51:30;34.44;33.17;35.59;;
41704;Laerm;861;48.808;9.006;2022-10-20T13:54:05;34.44;33.20;35.73;;
41704;Laerm;861;48.808;9.006;2022-10-20T13:56:45;34.44;33.20;35.90;;
41704;Laerm;861;48.808;9.006;2022-10-20T13:59:17;34.44;33.26;36.17;;
41704;Laerm;861;48.808;9.006;2022-10-20T14:01:55;34.43;33.02;35.92;;
41704;Laerm;861;48.808;9.006;2022-10-20T14:04:36;34.42;32.93;36.16;;
41704;Laerm;861;48.808;9.006;2022-10-20T14:07:12;34.42;33.03;36.07;;
41704;Laerm;861;48.808;9.006;2022-10-20T14:09:41;34.41;33.07;35.83;;
41704;Laerm;861;48.808;9.006;2022-10-20T14:12:24;34.37;33.02;35.86;;
41704;Laerm;861;48.808;9.006;2022-10-20T14:14:54;34.34;33.05;35.70;;
41704;Laerm;861;48.808;9.006;2022-10-20T14:17:24;34.30;32.92;35.76;;
41704;Laerm;861;48.808;9.006;2022-10-20T14:20:20;34.29;32.86;35.69;;
41704;Laerm;861;48.808;9.006;2022-10-20T14:22:48;34.29;33.04;35.77;;
41704;Laerm;861;48.808;9.006;2022-10-20T14:25:16;34.27;32.99;35.51;;
41704;Laerm;861;48.808;9.006;2022-10-20T14:27:44;34.25;32.92;35.98;;
41704;Laerm;861;48.808;9.006;2022-10-20T14:30:18;34.22;32.92;35.64;;
41704;Laerm;861;48.808;9.006;2022-10-20T14:32:49;34.18;32.91;35.43;;
41704;Laerm;861;48.808;9.006;2022-10-20T14:35:24;34.18;33.04;35.39;;
41704;Laerm;861;48.808;9.006;2022-10-20T14:38:22;34.18;32.62;36.42;;
41704;Laerm;861;48.808;9.006;2022-10-20T14:40:59;34.19;32.95;35.99;;
41704;Laerm;861;48.808;9.006;2022-10-20T14:43:47;34.19;32.75;35.55;;
41704;Laerm;861;48.808;9.006;2022-10-20T14:46:44;34.17;32.73;38.68;;
41704;Laerm;861;48.808;9.006;2022-10-20T14:49:28;34.16;32.82;35.70;;
41704;Laerm;861;48.808;9.006;2022-10-20T14:52:19;34.16;32.80;35.41;;
41704;Laerm;861;48.808;9.006;2022-10-20T14:54:51;34.17;32.82;35.64;;
41704;Laerm;861;48.808;9.006;2022-10-20T14:59:56;34.18;32.87;35.52;;
41704;Laerm;861;48.808;9.006;2022-10-20T15:02:39;34.18;32.93;35.53;;
41704;Laerm;861;48.808;9.006;2022-10-20T15:08:06;34.17;32.59;35.51;;
41704;Laerm;861;48.808;9.006;2022-10-20T15:10:33;34.16;32.85;35.43;;
41704;Laerm;861;48.808;9.006;2022-10-20T15:13:00;34.18;32.95;35.46;;
41704;Laerm;861;48.808;9.006;2022-10-20T15:15:37;34.17;32.76;35.37;;
41704;Laerm;861;48.808;9.006;2022-10-20T15:18:14;34.14;32.74;35.59;;
41704;Laerm;861;48.808;9.006;2022-10-20T15:20:45;34.15;32.97;35.59;;
41704;Laerm;861;48.808;9.006;2022-10-20T15:23:20;34.17;32.65;35.31;;
41704;Laerm;861;48.808;9.006;2022-10-20T15:26:09;34.16;32.83;35.48;;
41704;Laerm;861;48.808;9.006;2022-10-20T15:28:49;34.14;32.89;35.42;;
41704;Laerm;861;48.808;9.006;2022-10-20T15:31:27;34.15;32.56;35.36;;
41704;Laerm;861;48.808;9.006;2022-10-20T15:33:57;34.16;32.85;35.46;;
41704;Laerm;861;48.808;9.006;2022-10-20T15:36:30;34.16;32.94;35.40;;
41704;Laerm;861;48.808;9.006;2022-10-20T15:39:00;34.16;32.78;35.64;;
41704;Laerm;861;48.808;9.006;2022-10-20T15:41:35;34.16;32.79;35.56;;
41704;Laerm;861;48.808;9.006;2022-10-20T15:44:14;34.15;32.81;35.45;;
41704;Laerm;861;48.808;9.006;2022-10-20T15:46:43;34.16;32.81;35.59;;
41704;Laerm;861;48.808;9.006;2022-10-20T15:49:13;34.17;32.37;35.47;;
41704;Laerm;861;48.808;9.006;2022-10-20T15:51:49;34.18;32.79;35.42;;
41704;Laerm;861;48.808;9.006;2022-10-20T15:54:21;34.16;32.86;35.58;;
41704;Laerm;861;48.808;9.006;2022-10-20T15:56:48;34.17;32.95;35.33;;
41704;Laerm;861;48.808;9.006;2022-10-20T15:59:15;34.15;32.95;35.60;;
41704;Laerm;861;48.808;9.006;2022-10-20T16:01:41;34.15;32.69;35.26;;
41704;Laerm;861;48.808;9.006;2022-10-20T16:04:24;34.13;32.97;36.11;;
41704;Laerm;861;48.808;9.006;2022-10-20T16:06:56;34.13;32.59;41.34;;
41704;Laerm;861;48.808;9.006;2022-10-20T16:09:23;34.12;32.79;35.58;;
41704;Laerm;861;48.808;9.006;2022-10-20T16:11:50;34.12;32.80;35.32;;
41704;Laerm;861;48.808;9.006;2022-10-20T16:14:16;34.12;32.89;35.58;;
41704;Laerm;861;48.808;9.006;2022-10-20T16:16:43;34.12;32.69;35.30;;
41704;Laerm;861;48.808;9.006;2022-10-20T16:19:10;34.11;32.52;35.88;;
41704;Laerm;861;48.808;9.006;2022-10-20T16:21:37;34.12;32.66;35.41;;
41704;Laerm;861;48.808;9.006;2022-10-20T16:24:03;34.13;32.71;35.46;;
41704;Laerm;861;48.808;9.006;2022-10-20T16:26:30;34.13;32.83;35.34;;